This is the latest recevied weather packets stored in our database for station/object KA3WVU. If no packets are shown the sender has not sent any weather packets the latest 10 day(s).
| Time | Temp. | Humidity | Pressure | Rain* | Wind** | Luminosity | Snow |
|---|---|---|---|---|---|---|---|
| 1777736118 | 3.89° C | 73% | 1013.4 hPa | 0 mm | - | 275 W/m² | - |
| 1777735809 | 3.89° C | 76% | 1013.5 hPa | 0 mm | - | 152 W/m² | - |
| 1777735507 | 3.89° C | 71% | 1013.3 hPa | 0 mm | - | 197 W/m² | - |
| 1777735204 | 3.89° C | 73% | 1013.5 hPa | 0 mm | - | 173 W/m² | - |
| 1777734901 | 4.44° C | 73% | 1013.3 hPa | 0 mm | - | 206 W/m² | - |
| 1777734598 | 3.89° C | 72% | 1013.5 hPa | 0 mm | - | 368 W/m² | - |
| 1777734295 | 5° C | 74% | 1013.4 hPa | 0 mm | - | 192 W/m² | - |
| 1777733991 | 3.89° C | 71% | 1013.2 hPa | 0 mm | - | 491 W/m² | - |
| 1777733688 | 3.89° C | 72% | 1013.2 hPa | 0 mm | - | 541 W/m² | - |
| 1777733384 | 4.44° C | 72% | 1013.4 hPa | 0 mm | - | 484 W/m² | - |
| 1777733081 | 5° C | 72% | 1013.4 hPa | 0 mm | - | 666 W/m² | - |
| 1777732777 | 4.44° C | 70% | 1013.3 hPa | 0 mm | - | 630 W/m² | - |
| 1777732475 | 3.89° C | 70% | 1013.5 hPa | 0 mm | - | 476 W/m² | - |
| 1777732172 | 4.44° C | 77% | 1013.3 hPa | 0 mm | - | 281 W/m² | - |
| 1777731869 | 4.44° C | 76% | 1013.3 hPa | 0 mm | - | 593 W/m² | - |
| 1777731566 | 3.33° C | 77% | 1013.3 hPa | 0 mm | - | 588 W/m² | - |
| 1777731264 | 3.33° C | 75% | 1013.4 hPa | 0 mm | - | 551 W/m² | - |
| 1777730961 | 2.78° C | 80% | 1013.3 hPa | 0 mm | - | 137 W/m² | - |
| 1777730660 | 2.78° C | 79% | 1013.4 hPa | 0 mm | - | 372 W/m² | - |
| 1777730355 | 2.22° C | 83% | 1013.5 hPa | 0 mm | - | 230 W/m² | - |
| 1777730051 | 2.22° C | 82% | 1013.4 hPa | 0 mm | - | 310 W/m² | - |
| 1777729748 | 2.22° C | 85% | 1013.4 hPa | 0 mm | - | 207 W/m² | - |
| 1777729445 | 2.22° C | 83% | 1013.5 hPa | 0 mm | - | 282 W/m² | - |
| 1777729141 | 2.22° C | 82% | 1013.5 hPa | 0 mm | - | 170 W/m² | - |
| 1777728838 | 2.22° C | 79% | 1013.4 hPa | 0 mm | - | 217 W/m² | - |
* Rain latest hour (hover to see other rain measurements)
** Current wind speed in m/s (hover to see current wind gust speed)